Time;durP1;ratioP1;P1;durP2;ratioP2;P2;SDS_P1;SDS_P2;PMS_P1;PMS_P2;Temp;Humidity;BMP_temperature;BMP_pressure;BME280_temperature;BME280_humidity;BME280_pressure;Samples;Min_cycle;Max_cycle;Signal;HPM_P1;HPM_P2
2022/05/19 00:01:49;;;;;;;0.40;0.20;;;;;;;18.27;85.19;100560.13;5012390;28;20945;-56
2022/05/19 00:04:15;;;;;;;0.70;0.53;;;;;;;18.35;83.98;100558.72;5011926;28;20452;-56
2022/05/19 00:06:42;;;;;;;0.40;0.30;;;;;;;18.39;84.56;100554.06;5012152;28;20468;-56
2022/05/19 00:09:09;;;;;;;1.47;1.47;;;;;;;18.24;85.09;100558.50;4999446;28;20496;-56
2022/05/19 00:11:37;;;;;;;0.40;0.30;;;;;;;18.06;85.07;100565.75;5012325;28;20452;-56
2022/05/19 00:14:03;;;;;;;0.90;0.40;;;;;;;18.22;85.04;100562.19;5014307;28;20498;-56
2022/05/19 00:16:30;;;;;;;0.40;0.30;;;;;;;18.10;84.75;100560.22;5015283;28;21001;-56
2022/05/19 00:18:57;;;;;;;0.40;0.30;;;;;;;17.99;85.41;100558.97;5015178;28;20456;-56
2022/05/19 00:21:24;;;;;;;0.50;0.30;;;;;;;17.79;86.32;100551.13;5015822;28;20473;-56
2022/05/19 00:23:51;;;;;;;0.50;0.40;;;;;;;17.95;85.96;100560.06;5016000;28;20456;-56
2022/05/19 00:26:17;;;;;;;0.40;0.20;;;;;;;17.88;86.22;100557.81;5015577;28;20546;-56
2022/05/19 00:28:44;;;;;;;0.40;0.30;;;;;;;17.72;86.81;100555.09;5014306;28;20519;-56
2022/05/19 00:31:11;;;;;;;0.40;0.30;;;;;;;17.60;87.50;100551.22;5015632;28;20448;-56
2022/05/19 00:33:38;;;;;;;0.40;0.20;;;;;;;17.41;88.44;100548.66;5015349;28;20503;-56
2022/05/19 00:36:13;;;;;;;1.23;1.13;;;;;;;17.50;88.80;100547.28;5015035;28;20542;-56
2022/05/19 00:38:41;;;;;;;0.40;0.20;;;;;;;17.55;88.19;100545.22;5015479;28;20448;-56
2022/05/19 00:41:09;;;;;;;1.03;1.03;;;;;;;17.57;88.47;100545.13;5015478;28;21102;-56
2022/05/19 00:43:40;;;;;;;0.67;0.60;;;;;;;17.57;88.22;100547.81;5014820;28;20452;-56
2022/05/19 00:46:30;;;;;;;0.50;0.50;;;;;;;17.53;88.85;100546.22;5014452;28;20503;-56
2022/05/19 00:49:17;;;;;;;0.40;0.30;;;;;;;17.75;87.67;100555.78;5014933;28;20541;-56
2022/05/19 00:51:50;;;;;;;0.50;0.40;;;;;;;17.71;88.51;100551.53;5015067;28;20444;-56
2022/05/19 00:54:24;;;;;;;0.40;0.20;;;;;;;17.65;88.27;100549.13;5014757;28;20452;-56
2022/05/19 00:56:59;;;;;;;0.50;0.40;;;;;;;17.69;88.25;100552.59;5014822;28;20527;-56
2022/05/19 00:59:34;;;;;;;0.40;0.20;;;;;;;17.68;88.13;100540.97;4980962;28;21258;-56
2022/05/19 01:02:01;;;;;;;0.50;0.33;;;;;;;17.64;88.46;100550.09;5009899;28;20440;-57
2022/05/19 01:04:35;;;;;;;0.47;0.33;;;;;;;17.44;88.63;100550.28;5014961;28;20471;-57
2022/05/19 01:07:10;;;;;;;0.60;0.60;;;;;;;17.33;89.32;100545.47;5014394;28;22006;-57
2022/05/19 01:09:39;;;;;;;0.40;0.30;;;;;;;17.28;89.83;100546.69;5014806;28;20441;-56
2022/05/19 01:12:07;;;;;;;0.40;0.20;;;;;;;17.30;90.29;100548.34;5014758;28;20456;-56
2022/05/19 01:14:34;;;;;;;0.40;0.20;;;;;;;17.08;90.78;100551.25;5014522;28;20979;-56
2022/05/19 01:17:02;;;;;;;0.40;0.20;;;;;;;17.26;90.44;100549.41;5014487;28;20531;-56
2022/05/19 01:19:59;;;;;;;0.40;0.30;;;;;;;16.97;91.15;100550.91;5014111;28;20449;-56
2022/05/19 01:22:40;;;;;;;0.40;0.30;;;;;;;17.00;91.79;100555.28;5012123;28;20833;-55
2022/05/19 01:25:27;;;;;;;0.50;0.40;;;;;;;16.91;92.06;100553.06;5014110;28;20503;-56
2022/05/19 01:27:54;;;;;;;0.50;0.30;;;;;;;16.82;93.02;100547.19;5014005;28;21026;-56
2022/05/19 01:30:21;;;;;;;0.70;0.70;;;;;;;17.17;91.77;100549.91;5013887;28;20449;-56
2022/05/19 01:32:47;;;;;;;0.70;0.70;;;;;;;17.15;91.41;100549.13;5013974;28;20461;-57
2022/05/19 01:35:14;;;;;;;1.03;0.40;;;;;;;17.04;92.37;100543.44;5013464;28;20993;-55
2022/05/19 01:37:41;;;;;;;0.40;0.20;;;;;;;17.04;92.33;100546.13;5013907;28;20511;-56
2022/05/19 01:40:32;;;;;;;0.40;0.20;;;;;;;17.07;91.34;100548.63;5013751;28;20527;-56
2022/05/19 01:43:16;;;;;;;1.07;1.07;;;;;;;16.89;91.97;100542.41;5013719;28;20445;-55
2022/05/19 01:45:45;;;;;;;0.40;0.30;;;;;;;16.69;92.81;100538.00;5013482;28;20899;-56
2022/05/19 01:48:39;;;;;;;0.40;0.20;;;;;;;16.74;93.13;100549.41;5013593;28;20547;-56
2022/05/19 01:51:14;;;;;;;0.47;0.40;;;;;;;16.95;92.19;100544.75;5012264;28;20449;-56
2022/05/19 01:53:49;;;;;;;0.40;0.20;;;;;;;16.82;92.16;100547.19;5013844;28;20475;-56
2022/05/19 01:56:28;;;;;;;0.40;0.20;;;;;;;16.69;92.77;100543.38;5013491;28;20507;-56
2022/05/19 01:59:09;;;;;;;0.40;0.30;;;;;;;16.65;93.32;100547.13;5013364;28;20437;-56
2022/05/19 02:01:38;;;;;;;0.40;0.20;;;;;;;16.63;93.04;100550.84;5013690;28;20445;-56
2022/05/19 02:04:15;;;;;;;0.40;0.20;;;;;;;16.57;94.14;100555.56;5013351;28;20466;-56
2022/05/19 02:06:46;;;;;;;1.10;1.07;;;;;;;16.44;94.42;100548.19;5013166;28;20531;-56
2022/05/19 02:09:22;;;;;;;0.40;0.20;;;;;;;16.33;94.52;100545.16;5000721;28;20519;-56
2022/05/19 02:11:54;;;;;;;0.50;0.30;;;;;;;16.41;94.72;100545.66;5013343;28;20444;-56
2022/05/19 02:14:30;;;;;;;0.70;0.70;;;;;;;16.19;96.31;100549.38;5013312;28;20499;-55
2022/05/19 02:16:59;;;;;;;0.40;0.20;;;;;;;16.33;96.34;100537.13;5013130;28;20468;-56
2022/05/19 02:19:33;;;;;;;0.40;0.30;;;;;;;16.40;96.48;100541.22;5001987;28;20453;-56
2022/05/19 02:22:01;;;;;;;0.50;0.40;;;;;;;16.42;95.95;100544.72;5012159;28;20495;-56
2022/05/19 02:24:30;;;;;;;0.40;0.20;;;;;;;16.61;94.99;100545.56;5013192;28;20449;-56
2022/05/19 02:26:57;;;;;;;0.40;0.20;;;;;;;16.86;93.63;100545.25;5012991;28;20472;-56
2022/05/19 02:29:26;;;;;;;0.40;0.20;;;;;;;16.82;93.75;100541.81;5012882;28;20525;-56
2022/05/19 02:31:53;;;;;;;4.13;3.17;;;;;;;16.69;94.63;100539.81;4999893;28;20452;-56
2022/05/19 02:34:20;;;;;;;0.40;0.30;;;;;;;16.59;94.73;100544.78;5011363;28;20452;-56
2022/05/19 02:36:47;;;;;;;0.43;0.27;;;;;;;16.57;95.20;100531.41;5012219;28;20476;-55
2022/05/19 02:39:14;;;;;;;1.17;1.17;;;;;;;16.55;95.46;100533.28;5007325;28;20964;-56
2022/05/19 02:41:40;;;;;;;0.40;0.40;;;;;;;16.59;94.95;100526.84;5012962;28;20481;-56
2022/05/19 02:44:07;;;;;;;0.40;0.30;;;;;;;16.54;95.20;100528.88;5012679;28;20457;-56
2022/05/19 02:46:34;;;;;;;0.40;0.30;;;;;;;16.36;95.53;100526.22;4995192;28;20491;-55
2022/05/19 02:49:01;;;;;;;0.40;0.20;;;;;;;16.44;95.84;100526.72;5012354;28;20607;-55
2022/05/19 02:51:30;;;;;;;0.40;0.20;;;;;;;16.34;96.28;100512.91;5012947;28;20870;-55
2022/05/19 02:53:57;;;;;;;0.40;0.30;;;;;;;16.22;96.00;100508.13;5001946;28;20461;-56
2022/05/19 02:56:23;;;;;;;0.40;0.37;;;;;;;16.34;96.10;100509.34;5012725;28;20472;-56
2022/05/19 02:58:50;;;;;;;0.40;0.30;;;;;;;16.50;95.49;100507.66;5012476;28;20452;-56
2022/05/19 03:01:16;;;;;;;0.40;0.20;;;;;;;16.58;94.73;100500.06;5012755;28;20453;-56
2022/05/19 03:03:43;;;;;;;0.40;0.30;;;;;;;16.70;94.55;100510.22;5012450;28;20453;-57
2022/05/19 03:06:10;;;;;;;0.40;0.20;;;;;;;16.74;94.48;100506.47;5012040;28;20834;-55
2022/05/19 03:08:36;;;;;;;7.20;0.97;;;;;;;16.67;94.65;100499.66;5012148;28;21036;-56
2022/05/19 03:11:03;;;;;;;0.40;0.30;;;;;;;16.61;94.77;100497.25;5012513;28;20583;-55
2022/05/19 03:13:30;;;;;;;0.40;0.20;;;;;;;16.79;93.87;100509.75;5012462;28;21473;-56
2022/05/19 03:15:56;;;;;;;0.50;0.30;;;;;;;16.81;93.41;100513.25;5012319;28;21016;-55
2022/05/19 03:18:23;;;;;;;1.43;0.40;;;;;;;16.68;94.10;100509.44;5011847;28;20962;-56
2022/05/19 03:20:49;;;;;;;0.40;0.20;;;;;;;16.55;94.80;100510.97;5012555;28;20452;-56
2022/05/19 03:23:16;;;;;;;0.53;0.50;;;;;;;16.46;95.50;100506.06;5012279;28;20448;-56
2022/05/19 03:25:43;;;;;;;0.87;0.70;;;;;;;16.59;94.95;100507.19;5011846;28;20819;-56
2022/05/19 03:28:14;;;;;;;0.40;0.30;;;;;;;16.52;94.96;100517.34;5012118;28;20890;-56
2022/05/19 03:30:42;;;;;;;0.40;0.20;;;;;;;16.46;95.25;100520.34;5012033;28;20448;-55
2022/05/19 03:33:09;;;;;;;0.40;0.20;;;;;;;16.19;96.58;100517.19;5011975;28;20476;-55
2022/05/19 03:35:35;;;;;;;0.40;0.20;;;;;;;16.26;97.06;100513.25;5012405;28;20515;-57
2022/05/19 03:38:02;;;;;;;0.43;0.30;;;;;;;16.16;98.35;100519.13;5012172;28;20456;-57
2022/05/19 03:40:29;;;;;;;0.40;0.30;;;;;;;16.15;97.95;100523.63;5011920;28;20472;-57
2022/05/19 03:42:55;;;;;;;0.40;0.20;;;;;;;16.02;98.21;100529.66;5012238;28;20486;-57
2022/05/19 03:45:22;;;;;;;0.40;0.20;;;;;;;16.21;97.13;100526.03;5011715;28;20846;-57
2022/05/19 03:47:49;;;;;;;0.40;0.20;;;;;;;16.19;96.68;100519.88;5012246;28;20503;-57
2022/05/19 03:50:15;;;;;;;0.60;0.50;;;;;;;16.00;97.48;100532.41;5015979;28;20498;-57
2022/05/19 03:52:44;;;;;;;0.40;0.20;;;;;;;16.02;97.37;100530.50;5015774;28;20505;-57
2022/05/19 03:55:12;;;;;;;0.40;0.20;;;;;;;15.82;98.23;100533.28;5015492;28;20468;-57
2022/05/19 03:57:40;;;;;;;0.40;0.20;;;;;;;16.01;97.37;100534.13;5015951;28;20452;-57
2022/05/19 04:00:08;;;;;;;0.83;0.83;;;;;;;16.05;97.25;100534.88;5016045;28;20874;-57
2022/05/19 04:02:35;;;;;;;0.60;0.60;;;;;;;15.91;97.62;100540.91;5015700;28;20452;-57
2022/05/19 04:05:03;;;;;;;0.40;0.20;;;;;;;15.82;98.01;100535.94;5015709;28;20459;-57
2022/05/19 04:07:30;;;;;;;0.40;0.20;;;;;;;15.97;97.69;100551.31;5015421;28;20491;-57
2022/05/19 04:09:57;;;;;;;0.40;0.20;;;;;;;16.06;96.98;100555.41;5015630;28;20488;-57
2022/05/19 04:12:24;;;;;;;0.40;0.30;;;;;;;15.88;97.74;100560.66;5015403;28;20452;-57
2022/05/19 04:14:51;;;;;;;0.40;0.23;;;;;;;15.90;98.13;100564.16;5015463;28;20457;-57
2022/05/19 04:17:17;;;;;;;0.50;0.30;;;;;;;15.84;98.93;100561.75;5015471;28;20453;-57
2022/05/19 04:19:44;;;;;;;7.60;1.50;;;;;;;15.66;99.91;100550.06;5015006;28;20452;-57
2022/05/19 04:22:11;;;;;;;2.20;1.97;;;;;;;15.59;100.00;100555.72;5015463;28;20575;-56
2022/05/19 04:24:37;;;;;;;28.63;1.93;;;;;;;15.70;100.00;100548.09;5015437;28;20467;-57
2022/05/19 04:27:05;;;;;;;4.30;1.80;;;;;;;16.53;98.32;100553.97;5014761;28;20477;-57
2022/05/19 04:29:31;;;;;;;0.40;0.20;;;;;;;16.61;97.07;100567.03;5015168;28;20484;-57
2022/05/19 04:31:58;;;;;;;0.87;0.87;;;;;;;16.55;97.62;100570.88;5015388;28;20484;-57
2022/05/19 04:34:24;;;;;;;0.50;0.47;;;;;;;16.55;97.11;100572.69;5014968;28;20945;-57
2022/05/19 04:36:51;;;;;;;0.40;0.20;;;;;;;16.48;98.06;100574.81;5014642;28;20480;-57
2022/05/19 04:39:18;;;;;;;1.80;1.80;;;;;;;16.45;98.69;100563.38;5014858;28;20480;-57
2022/05/19 04:41:44;;;;;;;0.40;0.30;;;;;;;16.49;99.16;100549.72;5015224;28;20507;-57
2022/05/19 04:44:11;;;;;;;0.40;0.20;;;;;;;16.82;98.31;100544.50;5014944;28;20452;-57
2022/05/19 04:46:38;;;;;;;0.40;0.30;;;;;;;16.78;98.31;100545.63;5014872;28;20507;-57
2022/05/19 04:49:04;;;;;;;0.40;0.20;;;;;;;16.99;97.53;100548.16;5014796;28;20598;-57
2022/05/19 04:51:31;;;;;;;2.30;0.70;;;;;;;17.17;96.30;100545.41;5015009;28;20824;-57
2022/05/19 04:53:57;;;;;;;2.87;0.70;;;;;;;17.46;95.92;100549.25;5014503;28;20441;-57
2022/05/19 04:56:24;;;;;;;0.40;0.30;;;;;;;17.64;95.34;100544.72;5014794;28;20522;-57
2022/05/19 04:58:51;;;;;;;0.40;0.27;;;;;;;17.51;94.66;100532.88;5014253;28;20476;-57
2022/05/19 05:01:17;;;;;;;0.40;0.30;;;;;;;17.79;94.26;100540.34;5014595;28;20448;-57
2022/05/19 05:03:44;;;;;;;0.50;0.50;;;;;;;18.11;93.32;100546.69;5014383;28;20882;-57
2022/05/19 05:06:11;;;;;;;0.50;0.40;;;;;;;18.25;92.71;100548.59;5014576;28;20543;-57
2022/05/19 05:08:37;;;;;;;0.40;0.20;;;;;;;18.47;90.48;100565.25;5014103;28;20985;-57
2022/05/19 05:11:04;;;;;;;0.50;0.50;;;;;;;18.78;89.64;100567.09;5014509;28;20489;-57
2022/05/19 05:13:31;;;;;;;0.40;0.20;;;;;;;19.09;88.53;100568.00;5014520;28;20448;-57
2022/05/19 05:15:58;;;;;;;0.50;0.30;;;;;;;19.31;87.20;100562.16;5014149;28;20476;-57
2022/05/19 05:18:24;;;;;;;0.53;0.50;;;;;;;19.30;86.74;100565.81;5014331;28;20456;-57
2022/05/19 05:20:51;;;;;;;0.40;0.20;;;;;;;19.61;85.68;100576.53;5014274;28;20884;-57
2022/05/19 05:23:18;;;;;;;2.00;1.90;;;;;;;19.62;85.45;100566.63;5014026;28;21025;-57
2022/05/19 05:25:44;;;;;;;1.10;1.07;;;;;;;19.63;85.26;100566.53;5014030;28;20473;-57
2022/05/19 05:28:11;;;;;;;2.63;1.43;;;;;;;20.14;84.07;100572.28;5014273;28;20499;-57
2022/05/19 05:30:37;;;;;;;0.40;0.27;;;;;;;20.57;81.79;100564.16;5014057;28;20912;-57
2022/05/19 05:33:10;;;;;;;2.10;2.00;;;;;;;20.81;79.85;100573.34;5014373;28;20456;-57
2022/05/19 05:35:37;;;;;;;0.40;0.20;;;;;;;20.91;79.04;100570.91;5013555;28;20496;-57
2022/05/19 05:38:03;;;;;;;0.40;0.30;;;;;;;20.79;79.46;100553.66;5014027;28;20480;-57
2022/05/19 05:40:32;;;;;;;0.47;0.30;;;;;;;21.29;77.34;100552.97;5013804;28;20941;-57
2022/05/19 05:43:14;;;;;;;0.40;0.20;;;;;;;21.51;77.16;100565.00;5013402;28;20452;-57
2022/05/19 05:45:41;;;;;;;0.73;0.73;;;;;;;21.71;75.52;100564.47;5012737;28;20542;-56
2022/05/19 05:48:08;;;;;;;0.47;0.30;;;;;;;21.88;74.99;100563.28;5013637;28;20499;-57
2022/05/19 05:50:35;;;;;;;4.73;1.90;;;;;;;22.03;75.61;100567.59;5013530;28;20500;-57
2022/05/19 05:53:01;;;;;;;0.50;0.40;;;;;;;22.54;73.96;100574.78;5013358;28;20995;-57
2022/05/19 05:55:29;;;;;;;0.40;0.20;;;;;;;22.68;72.58;100583.63;5012279;28;20493;-57
2022/05/19 05:57:55;;;;;;;0.40;0.30;;;;;;;22.98;72.56;100580.50;5013595;28;20875;-57
2022/05/19 06:00:23;;;;;;;0.40;0.30;;;;;;;23.25;70.78;100587.50;5013545;28;20445;-57
2022/05/19 06:02:49;;;;;;;0.50;0.30;;;;;;;23.34;69.88;100593.09;5013345;28;20984;-57
2022/05/19 06:05:19;;;;;;;2.40;1.50;;;;;;;23.38;71.22;100590.16;5013427;28;20523;-57
2022/05/19 06:07:45;;;;;;;0.60;0.60;;;;;;;23.84;69.74;100592.88;5013197;28;20507;-57
2022/05/19 06:10:13;;;;;;;0.70;0.70;;;;;;;23.71;70.63;100595.72;5012641;28;20833;-57
2022/05/19 06:12:40;;;;;;;0.50;0.30;;;;;;;23.52;70.62;100592.66;5012844;28;20453;-57
2022/05/19 06:15:11;;;;;;;2.00;1.40;;;;;;;23.80;70.01;100578.69;5012865;28;21011;-57
2022/05/19 06:17:39;;;;;;;0.40;0.30;;;;;;;23.77;69.73;100587.06;5013234;28;20511;-57
2022/05/19 06:20:12;;;;;;;0.60;0.60;;;;;;;23.83;70.06;100575.72;5012518;28;20445;-57
2022/05/19 06:22:39;;;;;;;0.87;0.87;;;;;;;24.15;69.74;100585.88;5013233;28;20944;-57
2022/05/19 06:25:07;;;;;;;0.50;0.30;;;;;;;24.46;68.30;100587.88;5013100;28;20453;-57
2022/05/19 06:27:33;;;;;;;0.50;0.40;;;;;;;24.67;66.56;100590.69;5012747;28;20491;-57
2022/05/19 06:30:00;;;;;;;0.70;0.60;;;;;;;24.54;65.95;100586.38;5012632;28;20977;-57
2022/05/19 06:32:27;;;;;;;1.17;1.00;;;;;;;24.50;66.05;100593.91;5013237;28;20515;-57
2022/05/19 06:34:53;;;;;;;0.50;0.30;;;;;;;24.79;63.92;100586.91;5012766;28;20483;-57
2022/05/19 06:37:20;;;;;;;1.43;1.33;;;;;;;24.40;60.24;100585.66;5012645;28;20452;-57
2022/05/19 06:39:47;;;;;;;0.40;0.30;;;;;;;24.20;60.90;100591.78;5012649;28;20444;-57
2022/05/19 06:42:16;;;;;;;0.40;0.20;;;;;;;24.05;59.11;100595.75;5012752;28;20453;-57
2022/05/19 06:44:43;;;;;;;0.40;0.23;;;;;;;24.10;58.81;100590.78;5012481;28;20476;-57
2022/05/19 06:47:15;;;;;;;0.40;0.20;;;;;;;24.08;59.33;100584.63;5012453;28;20527;-57
2022/05/19 06:49:44;;;;;;;0.83;0.83;;;;;;;24.27;59.49;100575.88;5011346;28;20488;-57
2022/05/19 06:52:16;;;;;;;0.40;0.30;;;;;;;23.88;61.09;100576.22;5012847;28;20452;-57
2022/05/19 06:54:47;;;;;;;0.50;0.30;;;;;;;23.34;61.65;100575.97;5012240;28;20864;-57
2022/05/19 06:57:15;;;;;;;0.50;0.30;;;;;;;23.30;62.52;100578.06;5012813;28;20849;-57
2022/05/19 06:59:42;;;;;;;0.40;0.30;;;;;;;23.35;62.98;100578.56;5012666;28;20507;-57
2022/05/19 07:02:10;;;;;;;0.40;0.30;;;;;;;24.09;60.44;100587.22;5012175;28;20877;-57
2022/05/19 07:04:38;;;;;;;0.40;0.30;;;;;;;23.73;62.06;100577.44;5012403;28;20452;-57
2022/05/19 07:07:05;;;;;;;1.57;1.50;;;;;;;23.85;61.58;100575.63;5012189;28;20472;-57
2022/05/19 07:09:34;;;;;;;0.50;0.30;;;;;;;23.70;61.78;100558.66;5012524;28;20488;-57
2022/05/19 07:12:02;;;;;;;0.50;0.43;;;;;;;23.58;62.16;100559.66;5012473;28;20444;-57
2022/05/19 07:14:28;;;;;;;0.53;0.47;;;;;;;24.02;62.45;100569.69;5012297;28;20453;-57
2022/05/19 07:16:55;;;;;;;0.50;0.40;;;;;;;24.02;61.78;100567.00;5012036;28;20472;-57
2022/05/19 07:22:14;;;;;;;0.40;0.30;;;;;;;24.31;59.16;100561.06;4999089;28;20437;-57
2022/05/19 07:24:47;;;;;;;0.50;0.40;;;;;;;23.89;61.12;100560.81;5012371;28;20452;-57
2022/05/19 07:27:13;;;;;;;0.40;0.20;;;;;;;24.25;59.24;100565.09;5012222;28;20895;-57
2022/05/19 07:29:41;;;;;;;0.50;0.40;;;;;;;23.77;60.26;100569.91;5012052;28;20904;-57
2022/05/19 07:32:08;;;;;;;0.40;0.30;;;;;;;24.10;59.95;100563.63;5012049;28;20452;-57
2022/05/19 07:34:37;;;;;;;0.40;0.30;;;;;;;23.96;59.43;100570.19;5011857;28;20491;-56
2022/05/19 07:37:04;;;;;;;0.40;0.20;;;;;;;24.41;58.61;100568.38;5012133;28;20534;-57
2022/05/19 07:39:31;;;;;;;0.50;0.30;;;;;;;24.62;58.36;100567.56;5012264;28;20507;-56
2022/05/19 07:41:58;;;;;;;0.43;0.30;;;;;;;25.05;56.17;100560.28;5012053;28;20931;-57
2022/05/19 07:44:27;;;;;;;0.40;0.20;;;;;;;25.05;55.27;100554.84;5012226;28;20440;-57
2022/05/19 07:46:54;;;;;;;0.50;0.40;;;;;;;24.84;56.26;100553.06;5011908;28;20505;-56
2022/05/19 07:49:21;;;;;;;0.40;0.20;;;;;;;24.89;54.24;100550.81;5012004;28;20500;-57
2022/05/19 07:51:47;;;;;;;0.50;0.30;;;;;;;25.34;54.48;100557.78;4994228;28;20452;-57
2022/05/19 07:54:21;;;;;;;0.40;0.30;;;;;;;25.31;53.93;100559.94;5011916;28;20448;-57
2022/05/19 07:56:48;;;;;;;0.40;0.20;;;;;;;25.40;53.11;100561.88;5011857;28;20842;-57
2022/05/19 07:59:15;;;;;;;0.60;0.60;;;;;;;25.47;53.72;100548.56;5011895;28;20452;-57
2022/05/19 08:01:43;;;;;;;0.40;0.20;;;;;;;25.78;54.14;100547.69;5011900;28;21011;-57
2022/05/19 08:04:17;;;;;;;1.03;0.50;;;;;;;25.52;52.94;100554.50;5011410;28;20460;-56
2022/05/19 08:06:43;;;;;;;0.40;0.20;;;;;;;25.90;53.48;100551.16;5011867;28;20472;-55
2022/05/19 08:11:55;;;;;;;0.50;0.40;;;;;;;26.13;53.40;100547.25;5011659;28;20784;-56
2022/05/19 08:17:27;;;;;;;0.50;0.30;;;;;;;26.40;52.46;100554.84;5005022;28;20440;-56
2022/05/19 08:19:53;;;;;;;0.50;0.30;;;;;;;26.21;52.34;100547.44;5011473;28;20452;-56
2022/05/19 08:22:20;;;;;;;0.50;0.30;;;;;;;26.34;51.76;100549.91;5011840;28;20539;-56
2022/05/19 08:24:49;;;;;;;0.50;0.30;;;;;;;26.61;51.12;100553.91;5011260;28;20941;-56
2022/05/19 08:27:19;;;;;;;0.63;0.63;;;;;;;26.86;51.27;100548.78;5011635;28;20886;-56
2022/05/19 08:29:46;;;;;;;0.47;0.37;;;;;;;26.60;50.78;100542.13;5011459;28;20463;-56
2022/05/19 08:32:13;;;;;;;0.40;0.20;;;;;;;26.77;50.51;100537.84;5011696;28;20498;-56
2022/05/19 08:34:40;;;;;;;0.43;0.27;;;;;;;26.41;50.95;100547.53;5012366;28;20448;-56
2022/05/19 08:37:06;;;;;;;0.63;0.63;;;;;;;26.83;51.19;100549.03;4997565;28;20534;-56
2022/05/19 08:39:33;;;;;;;0.57;0.57;;;;;;;27.11;49.24;100546.50;4994354;28;20832;-56
2022/05/19 08:42:03;;;;;;;0.40;0.30;;;;;;;27.37;48.46;100541.31;5005585;28;20452;-56
2022/05/19 08:44:48;;;;;;;0.50;0.40;;;;;;;27.25;48.85;100553.38;5014804;28;20448;-56
2022/05/19 08:47:25;;;;;;;0.50;0.30;;;;;;;27.02;47.28;100550.13;5014551;28;20472;-56
2022/05/19 08:50:01;;;;;;;2.77;1.43;;;;;;;27.08;49.14;100544.94;5014584;28;21083;-56
2022/05/19 08:52:37;;;;;;;2.10;1.53;;;;;;;27.33;47.04;100546.22;5014768;28;20476;-56
2022/05/19 08:55:04;;;;;;;0.67;0.67;;;;;;;27.41;48.07;100549.09;5014700;28;20790;-56
2022/05/19 08:57:40;;;;;;;0.40;0.30;;;;;;;27.90;46.85;100541.66;5014708;28;20503;-56
2022/05/19 09:00:14;;;;;;;0.67;0.43;;;;;;;27.52;47.21;100533.53;5015036;28;20499;-55
2022/05/19 09:03:08;;;;;;;0.50;0.40;;;;;;;27.42;47.21;100534.44;5014269;28;20960;-56
2022/05/19 09:05:50;;;;;;;0.40;0.30;;;;;;;26.94;48.88;100526.22;5014405;28;20881;-55
2022/05/19 09:08:41;;;;;;;0.40;0.20;;;;;;;27.05;48.32;100528.84;5014289;28;20946;-55
2022/05/19 09:11:21;;;;;;;0.40;0.30;;;;;;;27.17;49.16;100521.38;5013464;28;21071;-56
2022/05/19 09:14:00;;;;;;;2.50;0.97;;;;;;;27.68;47.71;100517.41;5014271;28;20506;-56
2022/05/19 09:16:33;;;;;;;0.40;0.30;;;;;;;27.61;48.40;100516.25;5013882;28;20472;-55
2022/05/19 09:19:13;;;;;;;0.40;0.30;;;;;;;27.51;49.00;100518.16;5014633;28;20451;-56
2022/05/19 09:21:42;;;;;;;1.27;1.17;;;;;;;27.71;48.87;100519.88;5014257;28;20950;-55
2022/05/19 09:24:12;;;;;;;0.97;0.77;;;;;;;28.09;48.73;100534.38;5014507;28;20456;-56
2022/05/19 09:26:54;;;;;;;0.40;0.30;;;;;;;28.11;48.30;100525.03;5013893;28;20542;-56
2022/05/19 09:29:35;;;;;;;0.60;0.60;;;;;;;28.40;48.24;100516.72;5014365;28;20419;-56
2022/05/19 09:32:13;;;;;;;0.50;0.40;;;;;;;27.81;47.79;100522.53;5003229;28;20427;-56
2022/05/19 09:34:47;;;;;;;5.47;1.40;;;;;;;27.79;49.18;100516.38;5013717;28;20456;-56
2022/05/19 09:37:18;;;;;;;0.40;0.20;;;;;;;28.31;48.57;100507.53;5014236;28;20462;-54
2022/05/19 09:40:06;;;;;;;0.60;0.60;;;;;;;28.49;47.83;100506.69;5014068;28;20448;-55
2022/05/19 09:42:59;;;;;;;1.03;1.03;;;;;;;28.60;48.76;100512.81;5013653;28;20448;-54
2022/05/19 09:45:29;;;;;;;0.70;0.70;;;;;;;28.56;48.37;100510.56;5012917;28;20495;-54
2022/05/19 09:48:06;;;;;;;0.50;0.50;;;;;;;28.47;49.06;100504.13;5011978;28;20446;-54
2022/05/19 09:50:46;;;;;;;0.50;0.30;;;;;;;28.45;48.82;100506.16;5013611;28;20488;-54
2022/05/19 09:53:25;;;;;;;0.40;0.30;;;;;;;28.85;49.35;100504.88;5013310;28;20452;-54
2022/05/19 09:56:15;;;;;;;0.83;0.83;;;;;;;28.70;50.44;100496.34;5013709;28;20465;-54
2022/05/19 09:58:53;;;;;;;0.50;0.40;;;;;;;28.82;48.65;100497.84;5000443;28;20428;-54
2022/05/19 10:01:29;;;;;;;0.50;0.30;;;;;;;28.23;51.25;100499.19;5013345;28;20441;-54
2022/05/19 10:03:58;;;;;;;0.50;0.30;;;;;;;28.09;51.18;100496.09;5013603;28;20447;-54
2022/05/19 10:06:52;;;;;;;0.60;0.60;;;;;;;28.59;50.71;100491.09;5013563;28;20468;-54
2022/05/19 10:09:22;;;;;;;0.50;0.40;;;;;;;28.87;50.29;100483.69;5002222;28;20440;-54
2022/05/19 10:11:53;;;;;;;0.50;0.50;;;;;;;28.61;50.43;100487.19;5013437;28;20451;-55
2022/05/19 10:14:31;;;;;;;0.60;0.60;;;;;;;28.00;51.79;100478.75;5013265;28;20945;-54
2022/05/19 10:17:10;;;;;;;0.50;0.47;;;;;;;28.08;52.11;100475.25;5011702;28;20497;-54
2022/05/19 10:20:07;;;;;;;1.03;1.03;;;;;;;28.55;51.91;100474.13;5012921;28;21025;-54
2022/05/19 10:22:55;;;;;;;0.50;0.30;;;;;;;28.64;50.88;100477.78;4986982;28;20963;-54
2022/05/19 10:25:59;;;;;;;0.40;0.30;;;;;;;29.06;50.70;100469.00;5012913;28;20443;-55
2022/05/19 10:31:35;;;;;;;0.50;0.40;;;;;;;28.88;50.82;100471.75;5012866;28;20912;-55
2022/05/19 10:34:27;;;;;;;0.60;0.60;;;;;;;28.31;52.01;100471.13;5012966;28;20468;-55
2022/05/19 10:36:57;;;;;;;0.40;0.30;;;;;;;28.42;51.91;100459.97;5001561;28;20447;-54
2022/05/19 10:39:59;;;;;;;0.50;0.30;;;;;;;28.20;52.53;100460.38;5012886;28;20824;-54
2022/05/19 10:42:39;;;;;;;0.40;0.30;;;;;;;28.80;52.48;100455.22;5012816;28;20447;-54
2022/05/19 10:45:17;;;;;;;0.50;0.40;;;;;;;28.80;53.54;100460.69;5012517;28;20539;-55
2022/05/19 10:47:58;;;;;;;1.17;1.17;;;;;;;28.89;52.93;100446.09;5012441;28;20475;-54
2022/05/19 10:50:35;;;;;;;0.70;0.70;;;;;;;28.78;52.90;100451.75;5012459;28;20520;-54
2022/05/19 10:53:13;;;;;;;0.50;0.30;;;;;;;28.88;53.34;100439.75;5001719;28;20448;-54
2022/05/19 10:56:01;;;;;;;0.40;0.30;;;;;;;29.42;52.69;100443.22;5012258;28;20476;-54
2022/05/19 10:58:49;;;;;;;0.50;0.40;;;;;;;29.66;51.11;100434.34;5012070;28;20440;-55
2022/05/19 11:01:16;;;;;;;0.60;0.60;;;;;;;29.33;52.06;100432.38;5012723;28;20926;-55
2022/05/19 11:03:45;;;;;;;0.80;0.50;;;;;;;29.56;52.32;100422.63;5012447;28;20476;-54
2022/05/19 11:06:27;;;;;;;0.60;0.40;;;;;;;29.92;52.12;100423.31;5012362;28;21015;-54
2022/05/19 11:09:07;;;;;;;1.00;0.90;;;;;;;30.13;51.43;100428.38;5011997;28;20445;-55
2022/05/19 11:12:08;;;;;;;0.50;0.40;;;;;;;30.54;50.71;100422.97;5012295;28;20513;-55
2022/05/19 11:15:02;;;;;;;0.50;0.50;;;;;;;30.59;49.60;100420.59;5012351;28;20502;-55
2022/05/19 11:18:03;;;;;;;0.40;0.30;;;;;;;31.36;49.08;100413.75;5009294;28;20476;-54
2022/05/19 11:20:53;;;;;;;0.40;0.30;;;;;;;30.87;49.42;100407.44;4999471;28;20956;-55
2022/05/19 11:23:31;;;;;;;0.80;0.80;;;;;;;30.70;50.37;100402.94;5012498;28;20419;-54
2022/05/19 11:26:23;;;;;;;0.50;0.40;;;;;;;30.42;50.61;100399.63;5012238;28;20471;-55
2022/05/19 11:29:23;;;;;;;0.90;0.90;;;;;;;30.41;50.46;100407.00;5001828;28;20449;-54
2022/05/19 11:32:12;;;;;;;0.53;0.50;;;;;;;30.43;51.56;100409.59;4999658;28;20549;-54
2022/05/19 11:35:03;;;;;;;0.83;0.83;;;;;;;30.30;51.01;100399.13;5011932;28;20482;-55
2022/05/19 11:37:36;;;;;;;0.47;0.33;;;;;;;30.32;50.61;100408.91;5012318;28;20882;-55
2022/05/19 11:40:24;;;;;;;0.63;0.63;;;;;;;31.05;50.53;100399.00;5012294;28;21045;-55
2022/05/19 11:43:18;;;;;;;0.50;0.40;;;;;;;31.06;51.02;100395.22;5012124;28;20466;-54
2022/05/19 11:45:58;;;;;;;1.43;1.43;;;;;;;31.00;49.16;100385.81;5012040;28;20476;-54
2022/05/19 11:57:42;;;;;;;0.40;0.30;;;;;;;32.20;47.21;100386.59;5012068;28;20415;-54
2022/05/19 12:00:13;;;;;;;0.50;0.50;;;;;;;32.35;46.53;100380.19;5011727;28;20838;-54
2022/05/19 12:02:54;;;;;;;2.73;0.50;;;;;;;32.26;47.56;100380.38;5011754;28;20452;-54
2022/05/19 12:05:36;;;;;;;4.10;0.77;;;;;;;32.64;46.82;100378.59;5010413;28;20469;-54
2022/05/19 12:08:14;;;;;;;1.60;1.57;;;;;;;32.60;47.72;100378.09;5011738;28;20457;-54